aviador You're here:

LFSX Decoded Metar

LUXEUIL in FRANCE
Report Time2018-07-18 19:30:00
UTC Time2018-07-18 20:02:32
Flight Rules vfr VFR
Wind020° at 04 kt
W.Decomp.*RWY 29: 0.1 kt HW 4.0 kt RCW
W.Rank020° ranks 32
Current wind is below 020° avg. (4.6)
Visibility9999 m
Phenomena:N/A
Clouds:N/A
Expected CloudBase > 4,800 ft AGL from Temp-Dew spread
CeilingNone
Temp26°C (ISA +13)
Dew Point14°C (48% RH)
AAT25.9°C
QNH1015 hPa
Density Alt2,520 ft
Elevation896 ft
Report Wrong Elevation
Raw Report
LFSX 181930Z AUTO 02004KT 9999 NCD 26/14 Q1015=

Extra information for LFSX:More info

Metar Taf Metar & Taf Last 4 Metars F.Rules Stats Wind Profile Meteogram Temp Stats Airport Information Weather charts Add Link Nearby VenuesMetar ALERT Operation Metar Decoded Social comments